sensor_id;sensor_type;location;lat;lon;timestamp;P1;durP1;ratioP1;P2;durP2;ratioP2
12776;SDS011;6452;41.572;23.732;2023-12-22T00:02:24;38.85;;;24.23;;
12776;SDS011;6452;41.572;23.732;2023-12-22T00:04:51;42.00;;;27.58;;
12776;SDS011;6452;41.572;23.732;2023-12-22T00:07:17;39.50;;;26.45;;
12776;SDS011;6452;41.572;23.732;2023-12-22T00:09:45;48.08;;;29.13;;
12776;SDS011;6452;41.572;23.732;2023-12-22T00:12:11;53.33;;;34.20;;
12776;SDS011;6452;41.572;23.732;2023-12-22T00:14:37;104.57;;;39.13;;
12776;SDS011;6452;41.572;23.732;2023-12-22T00:17:06;71.45;;;33.13;;
12776;SDS011;6452;41.572;23.732;2023-12-22T00:19:32;124.22;;;46.97;;
12776;SDS011;6452;41.572;23.732;2023-12-22T00:21:58;111.57;;;50.75;;
12776;SDS011;6452;41.572;23.732;2023-12-22T00:24:24;70.03;;;39.05;;
12776;SDS011;6452;41.572;23.732;2023-12-22T00:26:50;64.40;;;35.33;;
12776;SDS011;6452;41.572;23.732;2023-12-22T00:29:16;42.00;;;27.00;;
12776;SDS011;6452;41.572;23.732;2023-12-22T00:31:42;35.72;;;24.52;;
12776;SDS011;6452;41.572;23.732;2023-12-22T00:34:08;35.83;;;24.77;;
12776;SDS011;6452;41.572;23.732;2023-12-22T00:36:34;37.90;;;24.65;;
12776;SDS011;6452;41.572;23.732;2023-12-22T00:39:00;31.77;;;23.58;;
12776;SDS011;6452;41.572;23.732;2023-12-22T00:41:26;32.72;;;23.33;;
12776;SDS011;6452;41.572;23.732;2023-12-22T00:43:52;32.60;;;22.30;;
12776;SDS011;6452;41.572;23.732;2023-12-22T00:46:18;29.90;;;22.38;;
12776;SDS011;6452;41.572;23.732;2023-12-22T00:48:45;32.13;;;22.00;;
12776;SDS011;6452;41.572;23.732;2023-12-22T00:51:11;33.78;;;22.27;;
12776;SDS011;6452;41.572;23.732;2023-12-22T00:53:37;30.63;;;21.17;;
12776;SDS011;6452;41.572;23.732;2023-12-22T00:56:03;34.58;;;23.40;;
12776;SDS011;6452;41.572;23.732;2023-12-22T00:58:29;37.03;;;23.60;;
12776;SDS011;6452;41.572;23.732;2023-12-22T01:00:55;31.38;;;22.77;;
12776;SDS011;6452;41.572;23.732;2023-12-22T01:03:21;33.75;;;22.73;;
12776;SDS011;6452;41.572;23.732;2023-12-22T01:05:47;37.17;;;22.35;;
12776;SDS011;6452;41.572;23.732;2023-12-22T01:08:13;36.03;;;23.13;;
12776;SDS011;6452;41.572;23.732;2023-12-22T01:10:39;32.88;;;23.23;;
12776;SDS011;6452;41.572;23.732;2023-12-22T01:13:06;32.97;;;22.00;;
12776;SDS011;6452;41.572;23.732;2023-12-22T01:15:32;37.13;;;24.25;;
12776;SDS011;6452;41.572;23.732;2023-12-22T01:17:58;33.80;;;23.48;;
12776;SDS011;6452;41.572;23.732;2023-12-22T01:20:24;34.97;;;22.55;;
12776;SDS011;6452;41.572;23.732;2023-12-22T01:22:50;35.38;;;24.25;;
12776;SDS011;6452;41.572;23.732;2023-12-22T01:25:16;39.55;;;25.73;;
12776;SDS011;6452;41.572;23.732;2023-12-22T01:27:42;49.28;;;30.75;;
12776;SDS011;6452;41.572;23.732;2023-12-22T01:30:08;55.70;;;32.67;;
12776;SDS011;6452;41.572;23.732;2023-12-22T01:32:35;46.15;;;29.48;;
12776;SDS011;6452;41.572;23.732;2023-12-22T01:35:02;42.85;;;27.27;;
12776;SDS011;6452;41.572;23.732;2023-12-22T01:37:32;32.33;;;23.20;;
12776;SDS011;6452;41.572;23.732;2023-12-22T01:39:58;33.28;;;24.23;;
12776;SDS011;6452;41.572;23.732;2023-12-22T01:42:24;33.38;;;22.88;;
12776;SDS011;6452;41.572;23.732;2023-12-22T01:44:50;37.95;;;23.70;;
12776;SDS011;6452;41.572;23.732;2023-12-22T01:47:16;35.25;;;24.63;;
12776;SDS011;6452;41.572;23.732;2023-12-22T01:49:42;37.67;;;24.67;;
12776;SDS011;6452;41.572;23.732;2023-12-22T01:52:08;38.63;;;24.15;;
12776;SDS011;6452;41.572;23.732;2023-12-22T01:54:34;40.13;;;27.55;;
12776;SDS011;6452;41.572;23.732;2023-12-22T01:57:01;37.97;;;24.52;;
12776;SDS011;6452;41.572;23.732;2023-12-22T01:59:27;36.42;;;24.15;;
12776;SDS011;6452;41.572;23.732;2023-12-22T02:02:02;38.22;;;24.42;;
12776;SDS011;6452;41.572;23.732;2023-12-22T02:04:45;32.25;;;22.25;;
12776;SDS011;6452;41.572;23.732;2023-12-22T02:07:12;31.67;;;21.73;;
12776;SDS011;6452;41.572;23.732;2023-12-22T02:09:38;30.48;;;20.65;;
12776;SDS011;6452;41.572;23.732;2023-12-22T02:12:04;34.92;;;22.75;;
12776;SDS011;6452;41.572;23.732;2023-12-22T02:14:31;30.45;;;21.17;;
12776;SDS011;6452;41.572;23.732;2023-12-22T02:19:47;31.88;;;20.08;;
12776;SDS011;6452;41.572;23.732;2023-12-22T02:22:14;28.33;;;19.52;;
12776;SDS011;6452;41.572;23.732;2023-12-22T02:24:40;25.35;;;18.73;;
12776;SDS011;6452;41.572;23.732;2023-12-22T02:29:40;30.55;;;19.90;;
12776;SDS011;6452;41.572;23.732;2023-12-22T02:32:09;32.03;;;19.92;;
12776;SDS011;6452;41.572;23.732;2023-12-22T02:34:37;33.60;;;21.33;;
12776;SDS011;6452;41.572;23.732;2023-12-22T02:37:07;28.45;;;19.08;;
12776;SDS011;6452;41.572;23.732;2023-12-22T02:39:34;30.90;;;19.58;;
12776;SDS011;6452;41.572;23.732;2023-12-22T02:42:02;26.67;;;19.52;;
12776;SDS011;6452;41.572;23.732;2023-12-22T02:44:27;32.08;;;19.50;;
12776;SDS011;6452;41.572;23.732;2023-12-22T02:46:54;28.13;;;18.80;;
12776;SDS011;6452;41.572;23.732;2023-12-22T02:49:20;30.90;;;18.77;;
12776;SDS011;6452;41.572;23.732;2023-12-22T02:51:46;29.35;;;19.77;;
12776;SDS011;6452;41.572;23.732;2023-12-22T02:54:12;51.10;;;29.67;;
12776;SDS011;6452;41.572;23.732;2023-12-22T02:56:38;43.08;;;27.38;;
12776;SDS011;6452;41.572;23.732;2023-12-22T02:59:04;34.50;;;22.85;;
12776;SDS011;6452;41.572;23.732;2023-12-22T03:01:30;35.28;;;23.08;;
12776;SDS011;6452;41.572;23.732;2023-12-22T03:03:56;34.88;;;22.95;;
12776;SDS011;6452;41.572;23.732;2023-12-22T03:06:22;29.55;;;18.83;;
12776;SDS011;6452;41.572;23.732;2023-12-22T03:08:48;27.45;;;19.63;;
12776;SDS011;6452;41.572;23.732;2023-12-22T03:11:15;26.60;;;18.33;;
12776;SDS011;6452;41.572;23.732;2023-12-22T03:13:41;29.67;;;18.95;;
12776;SDS011;6452;41.572;23.732;2023-12-22T03:16:10;30.45;;;21.08;;
12776;SDS011;6452;41.572;23.732;2023-12-22T03:18:39;43.17;;;27.65;;
12776;SDS011;6452;41.572;23.732;2023-12-22T03:21:05;34.38;;;21.90;;
12776;SDS011;6452;41.572;23.732;2023-12-22T03:23:31;24.65;;;17.48;;
12776;SDS011;6452;41.572;23.732;2023-12-22T03:25:57;24.80;;;19.10;;
12776;SDS011;6452;41.572;23.732;2023-12-22T03:28:23;24.25;;;17.70;;
12776;SDS011;6452;41.572;23.732;2023-12-22T03:30:50;29.33;;;19.77;;
12776;SDS011;6452;41.572;23.732;2023-12-22T03:33:16;26.13;;;19.27;;
12776;SDS011;6452;41.572;23.732;2023-12-22T03:35:42;30.00;;;19.48;;
12776;SDS011;6452;41.572;23.732;2023-12-22T03:38:08;27.35;;;19.15;;
12776;SDS011;6452;41.572;23.732;2023-12-22T03:40:34;23.13;;;17.35;;
12776;SDS011;6452;41.572;23.732;2023-12-22T03:43:00;26.05;;;17.20;;
12776;SDS011;6452;41.572;23.732;2023-12-22T03:45:26;23.17;;;18.17;;
12776;SDS011;6452;41.572;23.732;2023-12-22T03:47:52;26.75;;;18.40;;
12776;SDS011;6452;41.572;23.732;2023-12-22T03:50:18;24.88;;;18.48;;
12776;SDS011;6452;41.572;23.732;2023-12-22T03:52:45;26.17;;;19.75;;
12776;SDS011;6452;41.572;23.732;2023-12-22T03:55:12;27.17;;;19.73;;
12776;SDS011;6452;41.572;23.732;2023-12-22T03:57:38;25.02;;;19.30;;
12776;SDS011;6452;41.572;23.732;2023-12-22T04:00:04;26.83;;;19.75;;
12776;SDS011;6452;41.572;23.732;2023-12-22T04:02:32;31.70;;;21.30;;
12776;SDS011;6452;41.572;23.732;2023-12-22T04:04:58;27.48;;;19.40;;
12776;SDS011;6452;41.572;23.732;2023-12-22T04:07:24;29.80;;;21.52;;
12776;SDS011;6452;41.572;23.732;2023-12-22T04:09:50;31.60;;;23.13;;
12776;SDS011;6452;41.572;23.732;2023-12-22T04:12:16;32.55;;;23.58;;
12776;SDS011;6452;41.572;23.732;2023-12-22T04:14:42;36.88;;;22.52;;
12776;SDS011;6452;41.572;23.732;2023-12-22T04:17:08;31.60;;;22.55;;
12776;SDS011;6452;41.572;23.732;2023-12-22T04:19:35;31.45;;;21.83;;
12776;SDS011;6452;41.572;23.732;2023-12-22T04:22:01;32.50;;;22.52;;
12776;SDS011;6452;41.572;23.732;2023-12-22T04:24:28;34.75;;;24.67;;
12776;SDS011;6452;41.572;23.732;2023-12-22T04:26:54;34.90;;;23.38;;
12776;SDS011;6452;41.572;23.732;2023-12-22T04:29:20;28.13;;;21.17;;
12776;SDS011;6452;41.572;23.732;2023-12-22T04:31:45;29.23;;;21.63;;
12776;SDS011;6452;41.572;23.732;2023-12-22T04:34:13;34.35;;;21.33;;
12776;SDS011;6452;41.572;23.732;2023-12-22T04:36:39;22.83;;;18.60;;
12776;SDS011;6452;41.572;23.732;2023-12-22T04:39:05;26.05;;;18.67;;
12776;SDS011;6452;41.572;23.732;2023-12-22T04:41:32;25.90;;;19.00;;
12776;SDS011;6452;41.572;23.732;2023-12-22T04:43:58;24.63;;;19.27;;
12776;SDS011;6452;41.572;23.732;2023-12-22T04:46:23;26.25;;;20.15;;
12776;SDS011;6452;41.572;23.732;2023-12-22T04:48:50;33.50;;;24.88;;
12776;SDS011;6452;41.572;23.732;2023-12-22T04:51:16;36.60;;;28.40;;
12776;SDS011;6452;41.572;23.732;2023-12-22T04:53:47;74.00;;;42.22;;
12776;SDS011;6452;41.572;23.732;2023-12-22T04:56:12;112.50;;;56.85;;
12776;SDS011;6452;41.572;23.732;2023-12-22T04:58:38;74.13;;;42.60;;
12776;SDS011;6452;41.572;23.732;2023-12-22T05:01:05;72.63;;;41.78;;
12776;SDS011;6452;41.572;23.732;2023-12-22T05:03:31;59.35;;;35.80;;
12776;SDS011;6452;41.572;23.732;2023-12-22T05:05:56;54.58;;;34.95;;
12776;SDS011;6452;41.572;23.732;2023-12-22T05:08:23;54.92;;;35.08;;
12776;SDS011;6452;41.572;23.732;2023-12-22T05:10:49;47.35;;;30.02;;
12776;SDS011;6452;41.572;23.732;2023-12-22T05:13:14;51.50;;;30.88;;
12776;SDS011;6452;41.572;23.732;2023-12-22T05:15:41;59.10;;;38.95;;
12776;SDS011;6452;41.572;23.732;2023-12-22T05:18:07;49.20;;;32.50;;
12776;SDS011;6452;41.572;23.732;2023-12-22T05:20:33;55.80;;;35.97;;
12776;SDS011;6452;41.572;23.732;2023-12-22T05:23:00;156.35;;;60.28;;
12776;SDS011;6452;41.572;23.732;2023-12-22T05:25:26;54.90;;;33.80;;
12776;SDS011;6452;41.572;23.732;2023-12-22T05:27:52;56.85;;;35.05;;
12776;SDS011;6452;41.572;23.732;2023-12-22T05:30:18;47.78;;;31.85;;
12776;SDS011;6452;41.572;23.732;2023-12-22T05:32:44;30.83;;;20.83;;
12776;SDS011;6452;41.572;23.732;2023-12-22T05:35:11;30.23;;;21.52;;
12776;SDS011;6452;41.572;23.732;2023-12-22T05:37:37;31.58;;;21.30;;
12776;SDS011;6452;41.572;23.732;2023-12-22T05:40:03;29.15;;;20.55;;
12776;SDS011;6452;41.572;23.732;2023-12-22T05:42:32;28.02;;;19.58;;
12776;SDS011;6452;41.572;23.732;2023-12-22T05:44:58;63.28;;;36.20;;
12776;SDS011;6452;41.572;23.732;2023-12-22T05:47:24;46.63;;;26.48;;
12776;SDS011;6452;41.572;23.732;2023-12-22T05:49:50;31.10;;;22.40;;
12776;SDS011;6452;41.572;23.732;2023-12-22T05:52:16;28.63;;;21.20;;
12776;SDS011;6452;41.572;23.732;2023-12-22T05:54:42;27.83;;;20.02;;
12776;SDS011;6452;41.572;23.732;2023-12-22T05:57:08;31.58;;;21.77;;
12776;SDS011;6452;41.572;23.732;2023-12-22T05:59:34;27.15;;;20.92;;
12776;SDS011;6452;41.572;23.732;2023-12-22T06:02:01;29.10;;;21.58;;
12776;SDS011;6452;41.572;23.732;2023-12-22T06:04:28;32.28;;;22.27;;
12776;SDS011;6452;41.572;23.732;2023-12-22T06:06:54;30.98;;;21.23;;
12776;SDS011;6452;41.572;23.732;2023-12-22T06:09:20;31.45;;;22.02;;
12776;SDS011;6452;41.572;23.732;2023-12-22T06:11:47;46.35;;;28.70;;
12776;SDS011;6452;41.572;23.732;2023-12-22T06:14:13;34.22;;;22.15;;
12776;SDS011;6452;41.572;23.732;2023-12-22T06:16:39;35.97;;;23.35;;
12776;SDS011;6452;41.572;23.732;2023-12-22T06:19:05;39.35;;;25.50;;
12776;SDS011;6452;41.572;23.732;2023-12-22T06:21:31;37.92;;;26.42;;
12776;SDS011;6452;41.572;23.732;2023-12-22T06:23:58;44.40;;;30.15;;
12776;SDS011;6452;41.572;23.732;2023-12-22T06:26:23;46.03;;;32.28;;
12776;SDS011;6452;41.572;23.732;2023-12-22T06:28:49;45.42;;;33.15;;
12776;SDS011;6452;41.572;23.732;2023-12-22T06:31:17;85.70;;;49.03;;
12776;SDS011;6452;41.572;23.732;2023-12-22T06:33:46;99.85;;;53.58;;
12776;SDS011;6452;41.572;23.732;2023-12-22T06:36:22;55.03;;;34.38;;
12776;SDS011;6452;41.572;23.732;2023-12-22T06:38:48;61.33;;;44.47;;
12776;SDS011;6452;41.572;23.732;2023-12-22T06:41:20;54.80;;;37.65;;
12776;SDS011;6452;41.572;23.732;2023-12-22T06:43:47;44.13;;;33.55;;
12776;SDS011;6452;41.572;23.732;2023-12-22T06:46:15;55.28;;;37.65;;
12776;SDS011;6452;41.572;23.732;2023-12-22T06:48:42;63.70;;;41.20;;
12776;SDS011;6452;41.572;23.732;2023-12-22T06:51:07;64.40;;;38.38;;
12776;SDS011;6452;41.572;23.732;2023-12-22T06:53:33;51.35;;;34.28;;
12776;SDS011;6452;41.572;23.732;2023-12-22T06:55:59;49.42;;;36.05;;
12776;SDS011;6452;41.572;23.732;2023-12-22T06:58:25;68.03;;;43.63;;
12776;SDS011;6452;41.572;23.732;2023-12-22T07:00:52;52.20;;;35.05;;
12776;SDS011;6452;41.572;23.732;2023-12-22T07:03:18;49.35;;;32.78;;
12776;SDS011;6452;41.572;23.732;2023-12-22T07:05:44;49.75;;;34.13;;
12776;SDS011;6452;41.572;23.732;2023-12-22T07:08:10;55.85;;;38.03;;
12776;SDS011;6452;41.572;23.732;2023-12-22T07:10:37;52.30;;;34.95;;
12776;SDS011;6452;41.572;23.732;2023-12-22T07:13:03;66.43;;;42.30;;
12776;SDS011;6452;41.572;23.732;2023-12-22T07:15:29;62.80;;;39.55;;
12776;SDS011;6452;41.572;23.732;2023-12-22T07:17:55;55.08;;;36.92;;
12776;SDS011;6452;41.572;23.732;2023-12-22T07:20:21;49.15;;;34.67;;
12776;SDS011;6452;41.572;23.732;2023-12-22T07:22:47;53.20;;;33.88;;
12776;SDS011;6452;41.572;23.732;2023-12-22T07:25:13;50.72;;;33.20;;
12776;SDS011;6452;41.572;23.732;2023-12-22T07:27:39;47.33;;;32.58;;
12776;SDS011;6452;41.572;23.732;2023-12-22T07:30:05;46.03;;;33.25;;
12776;SDS011;6452;41.572;23.732;2023-12-22T07:32:32;51.90;;;35.97;;
12776;SDS011;6452;41.572;23.732;2023-12-22T07:34:58;57.90;;;40.05;;
12776;SDS011;6452;41.572;23.732;2023-12-22T07:37:25;80.85;;;60.80;;
12776;SDS011;6452;41.572;23.732;2023-12-22T07:39:51;60.33;;;42.30;;
12776;SDS011;6452;41.572;23.732;2023-12-22T07:42:17;55.28;;;38.00;;
12776;SDS011;6452;41.572;23.732;2023-12-22T07:44:43;59.75;;;39.28;;
12776;SDS011;6452;41.572;23.732;2023-12-22T07:47:09;59.75;;;39.53;;
12776;SDS011;6452;41.572;23.732;2023-12-22T07:49:36;42.75;;;31.00;;
12776;SDS011;6452;41.572;23.732;2023-12-22T07:52:02;43.67;;;30.27;;
12776;SDS011;6452;41.572;23.732;2023-12-22T07:54:28;39.22;;;29.25;;
12776;SDS011;6452;41.572;23.732;2023-12-22T07:56:55;41.03;;;29.20;;
12776;SDS011;6452;41.572;23.732;2023-12-22T07:59:21;42.28;;;30.67;;
12776;SDS011;6452;41.572;23.732;2023-12-22T08:01:47;41.05;;;28.52;;
12776;SDS011;6452;41.572;23.732;2023-12-22T08:04:13;42.80;;;30.58;;
12776;SDS011;6452;41.572;23.732;2023-12-22T08:06:39;45.80;;;30.48;;
12776;SDS011;6452;41.572;23.732;2023-12-22T08:09:06;45.05;;;31.60;;
12776;SDS011;6452;41.572;23.732;2023-12-22T08:11:31;42.03;;;29.65;;
12776;SDS011;6452;41.572;23.732;2023-12-22T08:13:58;39.45;;;28.73;;
12776;SDS011;6452;41.572;23.732;2023-12-22T08:16:24;46.33;;;32.10;;
12776;SDS011;6452;41.572;23.732;2023-12-22T08:18:50;48.03;;;32.90;;
12776;SDS011;6452;41.572;23.732;2023-12-22T08:21:16;50.90;;;34.38;;
12776;SDS011;6452;41.572;23.732;2023-12-22T08:23:42;50.13;;;35.45;;
12776;SDS011;6452;41.572;23.732;2023-12-22T08:26:08;60.65;;;40.53;;
12776;SDS011;6452;41.572;23.732;2023-12-22T08:28:34;58.20;;;40.83;;
12776;SDS011;6452;41.572;23.732;2023-12-22T08:31:00;60.08;;;39.30;;
12776;SDS011;6452;41.572;23.732;2023-12-22T08:33:27;56.63;;;39.45;;
12776;SDS011;6452;41.572;23.732;2023-12-22T08:35:53;56.17;;;41.58;;
12776;SDS011;6452;41.572;23.732;2023-12-22T08:38:19;56.17;;;40.83;;
12776;SDS011;6452;41.572;23.732;2023-12-22T08:40:45;57.58;;;41.58;;
12776;SDS011;6452;41.572;23.732;2023-12-22T08:43:11;52.67;;;38.58;;
12776;SDS011;6452;41.572;23.732;2023-12-22T08:45:37;64.60;;;44.45;;
12776;SDS011;6452;41.572;23.732;2023-12-22T08:48:04;66.63;;;47.15;;
12776;SDS011;6452;41.572;23.732;2023-12-22T08:50:34;73.68;;;48.70;;
12776;SDS011;6452;41.572;23.732;2023-12-22T08:53:00;64.43;;;43.83;;
12776;SDS011;6452;41.572;23.732;2023-12-22T08:55:26;83.53;;;50.63;;
12776;SDS011;6452;41.572;23.732;2023-12-22T08:57:52;88.65;;;52.00;;
12776;SDS011;6452;41.572;23.732;2023-12-22T09:00:18;82.70;;;51.63;;
12776;SDS011;6452;41.572;23.732;2023-12-22T09:02:44;86.68;;;57.38;;
12776;SDS011;6452;41.572;23.732;2023-12-22T09:05:10;107.90;;;60.85;;
12776;SDS011;6452;41.572;23.732;2023-12-22T09:07:36;77.97;;;51.72;;
12776;SDS011;6452;41.572;23.732;2023-12-22T09:10:02;70.60;;;47.85;;
12776;SDS011;6452;41.572;23.732;2023-12-22T09:12:29;91.18;;;54.78;;
12776;SDS011;6452;41.572;23.732;2023-12-22T09:14:55;76.22;;;50.97;;
12776;SDS011;6452;41.572;23.732;2023-12-22T09:17:21;71.57;;;48.17;;
12776;SDS011;6452;41.572;23.732;2023-12-22T09:19:48;59.47;;;40.92;;
12776;SDS011;6452;41.572;23.732;2023-12-22T09:22:14;64.85;;;42.80;;
12776;SDS011;6452;41.572;23.732;2023-12-22T09:24:40;57.38;;;41.47;;
12776;SDS011;6452;41.572;23.732;2023-12-22T09:27:06;66.43;;;43.58;;
12776;SDS011;6452;41.572;23.732;2023-12-22T09:29:32;66.60;;;45.50;;
12776;SDS011;6452;41.572;23.732;2023-12-22T09:31:59;71.38;;;46.30;;
12776;SDS011;6452;41.572;23.732;2023-12-22T09:34:28;98.68;;;57.50;;
12776;SDS011;6452;41.572;23.732;2023-12-22T09:37:10;59.08;;;41.25;;
12776;SDS011;6452;41.572;23.732;2023-12-22T09:39:36;61.65;;;40.22;;
12776;SDS011;6452;41.572;23.732;2023-12-22T09:42:03;62.78;;;43.00;;
12776;SDS011;6452;41.572;23.732;2023-12-22T09:44:31;61.80;;;41.88;;
12776;SDS011;6452;41.572;23.732;2023-12-22T09:46:57;60.00;;;42.53;;
12776;SDS011;6452;41.572;23.732;2023-12-22T09:49:23;58.80;;;41.42;;
12776;SDS011;6452;41.572;23.732;2023-12-22T09:51:49;57.40;;;40.58;;
12776;SDS011;6452;41.572;23.732;2023-12-22T09:54:16;56.55;;;39.25;;
12776;SDS011;6452;41.572;23.732;2023-12-22T09:56:42;56.50;;;39.10;;
12776;SDS011;6452;41.572;23.732;2023-12-22T09:59:12;51.95;;;39.30;;
12776;SDS011;6452;41.572;23.732;2023-12-22T10:01:44;59.20;;;41.75;;
12776;SDS011;6452;41.572;23.732;2023-12-22T10:04:13;60.03;;;43.25;;
12776;SDS011;6452;41.572;23.732;2023-12-22T10:06:39;62.38;;;40.58;;
12776;SDS011;6452;41.572;23.732;2023-12-22T10:09:05;54.13;;;40.30;;
12776;SDS011;6452;41.572;23.732;2023-12-22T10:11:32;56.00;;;40.55;;
12776;SDS011;6452;41.572;23.732;2023-12-22T10:14:00;49.88;;;36.83;;
12776;SDS011;6452;41.572;23.732;2023-12-22T10:16:27;53.17;;;37.60;;
12776;SDS011;6452;41.572;23.732;2023-12-22T10:18:53;57.15;;;39.35;;
12776;SDS011;6452;41.572;23.732;2023-12-22T10:21:19;56.25;;;38.63;;
12776;SDS011;6452;41.572;23.732;2023-12-22T10:23:45;47.35;;;35.00;;
12776;SDS011;6452;41.572;23.732;2023-12-22T10:26:12;43.85;;;33.58;;
12776;SDS011;6452;41.572;23.732;2023-12-22T10:28:37;49.35;;;34.60;;
12776;SDS011;6452;41.572;23.732;2023-12-22T10:31:04;44.95;;;29.13;;
12776;SDS011;6452;41.572;23.732;2023-12-22T10:33:32;39.30;;;27.80;;
12776;SDS011;6452;41.572;23.732;2023-12-22T10:35:59;49.47;;;33.72;;
12776;SDS011;6452;41.572;23.732;2023-12-22T10:38:25;39.58;;;30.00;;
12776;SDS011;6452;41.572;23.732;2023-12-22T10:40:52;35.05;;;28.42;;
12776;SDS011;6452;41.572;23.732;2023-12-22T10:43:18;30.63;;;23.67;;
12776;SDS011;6452;41.572;23.732;2023-12-22T10:45:44;40.38;;;32.10;;
12776;SDS011;6452;41.572;23.732;2023-12-22T10:48:10;44.63;;;31.67;;
12776;SDS011;6452;41.572;23.732;2023-12-22T10:50:36;43.72;;;32.97;;
12776;SDS011;6452;41.572;23.732;2023-12-22T10:53:05;41.05;;;33.25;;
12776;SDS011;6452;41.572;23.732;2023-12-22T10:55:31;39.95;;;32.15;;
12776;SDS011;6452;41.572;23.732;2023-12-22T10:58:01;39.47;;;32.85;;
12776;SDS011;6452;41.572;23.732;2023-12-22T11:00:28;42.38;;;31.80;;
12776;SDS011;6452;41.572;23.732;2023-12-22T11:02:56;41.40;;;30.30;;
12776;SDS011;6452;41.572;23.732;2023-12-22T11:05:24;27.35;;;21.25;;
12776;SDS011;6452;41.572;23.732;2023-12-22T11:07:52;23.95;;;19.85;;
12776;SDS011;6452;41.572;23.732;2023-12-22T11:10:20;23.35;;;17.83;;
12776;SDS011;6452;41.572;23.732;2023-12-22T11:12:47;21.10;;;17.13;;
12776;SDS011;6452;41.572;23.732;2023-12-22T11:15:13;20.70;;;16.65;;
12776;SDS011;6452;41.572;23.732;2023-12-22T11:17:39;14.23;;;11.95;;
12776;SDS011;6452;41.572;23.732;2023-12-22T11:20:10;14.65;;;11.95;;
12776;SDS011;6452;41.572;23.732;2023-12-22T11:22:37;14.93;;;12.15;;
12776;SDS011;6452;41.572;23.732;2023-12-22T11:25:04;14.35;;;12.10;;
12776;SDS011;6452;41.572;23.732;2023-12-22T11:27:30;13.65;;;12.25;;
12776;SDS011;6452;41.572;23.732;2023-12-22T11:29:59;18.67;;;13.38;;
12776;SDS011;6452;41.572;23.732;2023-12-22T11:32:26;12.98;;;11.68;;
12776;SDS011;6452;41.572;23.732;2023-12-22T11:34:52;12.63;;;10.45;;
12776;SDS011;6452;41.572;23.732;2023-12-22T11:37:19;16.85;;;11.63;;
12776;SDS011;6452;41.572;23.732;2023-12-22T11:39:45;14.05;;;12.30;;
12776;SDS011;6452;41.572;23.732;2023-12-22T11:42:13;15.13;;;13.52;;
12776;SDS011;6452;41.572;23.732;2023-12-22T11:44:39;12.68;;;11.38;;
12776;SDS011;6452;41.572;23.732;2023-12-22T11:47:06;14.13;;;10.90;;
12776;SDS011;6452;41.572;23.732;2023-12-22T11:49:33;14.73;;;12.88;;
12776;SDS011;6452;41.572;23.732;2023-12-22T11:52:09;17.98;;;15.43;;
12776;SDS011;6452;41.572;23.732;2023-12-22T11:54:47;19.98;;;17.23;;
12776;SDS011;6452;41.572;23.732;2023-12-22T12:00:01;23.30;;;19.27;;
12776;SDS011;6452;41.572;23.732;2023-12-22T12:02:43;26.33;;;18.67;;
12776;SDS011;6452;41.572;23.732;2023-12-22T12:05:19;25.23;;;20.33;;
12776;SDS011;6452;41.572;23.732;2023-12-22T12:07:46;26.55;;;21.35;;
12776;SDS011;6452;41.572;23.732;2023-12-22T12:10:13;25.40;;;19.75;;
12776;SDS011;6452;41.572;23.732;2023-12-22T12:13:11;25.17;;;19.27;;
12776;SDS011;6452;41.572;23.732;2023-12-22T12:15:37;24.05;;;19.35;;
12776;SDS011;6452;41.572;23.732;2023-12-22T12:18:04;32.17;;;21.70;;
12776;SDS011;6452;41.572;23.732;2023-12-22T12:20:31;48.45;;;32.35;;
12776;SDS011;6452;41.572;23.732;2023-12-22T12:22:57;29.23;;;20.02;;
12776;SDS011;6452;41.572;23.732;2023-12-22T12:25:25;25.58;;;18.52;;
12776;SDS011;6452;41.572;23.732;2023-12-22T12:28:06;26.13;;;18.73;;
12776;SDS011;6452;41.572;23.732;2023-12-22T12:30:32;24.52;;;17.95;;
12776;SDS011;6452;41.572;23.732;2023-12-22T12:32:59;25.73;;;17.58;;
12776;SDS011;6452;41.572;23.732;2023-12-22T12:35:31;23.77;;;17.15;;
12776;SDS011;6452;41.572;23.732;2023-12-22T12:37:57;17.73;;;15.40;;
12776;SDS011;6452;41.572;23.732;2023-12-22T12:40:23;20.58;;;15.68;;
12776;SDS011;6452;41.572;23.732;2023-12-22T12:42:50;20.30;;;15.90;;
12776;SDS011;6452;41.572;23.732;2023-12-22T12:45:21;22.23;;;17.17;;
12776;SDS011;6452;41.572;23.732;2023-12-22T12:47:56;23.65;;;18.13;;
12776;SDS011;6452;41.572;23.732;2023-12-22T12:50:24;34.28;;;23.25;;
12776;SDS011;6452;41.572;23.732;2023-12-22T12:52:53;29.38;;;23.00;;
12776;SDS011;6452;41.572;23.732;2023-12-22T12:55:20;33.70;;;22.90;;
12776;SDS011;6452;41.572;23.732;2023-12-22T12:57:50;35.25;;;28.08;;
12776;SDS011;6452;41.572;23.732;2023-12-22T13:00:23;35.38;;;27.42;;
12776;SDS011;6452;41.572;23.732;2023-12-22T13:02:49;33.08;;;26.20;;
12776;SDS011;6452;41.572;23.732;2023-12-22T13:05:24;46.42;;;27.55;;
12776;SDS011;6452;41.572;23.732;2023-12-22T13:07:50;44.70;;;29.60;;
12776;SDS011;6452;41.572;23.732;2023-12-22T13:10:20;41.70;;;27.77;;
12776;SDS011;6452;41.572;23.732;2023-12-22T13:12:46;32.03;;;24.05;;
12776;SDS011;6452;41.572;23.732;2023-12-22T13:15:12;41.05;;;27.60;;
12776;SDS011;6452;41.572;23.732;2023-12-22T13:17:38;35.03;;;25.70;;
12776;SDS011;6452;41.572;23.732;2023-12-22T13:20:04;33.38;;;25.92;;
12776;SDS011;6452;41.572;23.732;2023-12-22T13:22:30;64.03;;;47.28;;
12776;SDS011;6452;41.572;23.732;2023-12-22T13:24:56;55.92;;;43.63;;
12776;SDS011;6452;41.572;23.732;2023-12-22T13:27:26;46.75;;;36.85;;
12776;SDS011;6452;41.572;23.732;2023-12-22T13:29:52;35.03;;;28.48;;
12776;SDS011;6452;41.572;23.732;2023-12-22T13:32:20;31.15;;;23.02;;
12776;SDS011;6452;41.572;23.732;2023-12-22T13:34:53;29.33;;;23.77;;
12776;SDS011;6452;41.572;23.732;2023-12-22T13:37:19;82.90;;;48.97;;
12776;SDS011;6452;41.572;23.732;2023-12-22T13:39:45;60.88;;;38.78;;
12776;SDS011;6452;41.572;23.732;2023-12-22T13:42:15;47.22;;;35.70;;
12776;SDS011;6452;41.572;23.732;2023-12-22T13:44:45;42.72;;;30.92;;
12776;SDS011;6452;41.572;23.732;2023-12-22T13:47:27;55.60;;;40.22;;
12776;SDS011;6452;41.572;23.732;2023-12-22T13:49:53;62.25;;;41.78;;
12776;SDS011;6452;41.572;23.732;2023-12-22T13:54:52;71.68;;;50.40;;
12776;SDS011;6452;41.572;23.732;2023-12-22T13:57:22;95.18;;;64.38;;
12776;SDS011;6452;41.572;23.732;2023-12-22T13:59:52;74.60;;;49.63;;
12776;SDS011;6452;41.572;23.732;2023-12-22T14:02:19;50.05;;;36.47;;
12776;SDS011;6452;41.572;23.732;2023-12-22T14:04:45;57.97;;;41.75;;
12776;SDS011;6452;41.572;23.732;2023-12-22T14:07:11;70.65;;;50.25;;
12776;SDS011;6452;41.572;23.732;2023-12-22T14:09:37;69.90;;;48.90;;
12776;SDS011;6452;41.572;23.732;2023-12-22T14:12:04;64.18;;;44.75;;
12776;SDS011;6452;41.572;23.732;2023-12-22T14:14:30;44.45;;;32.78;;
12776;SDS011;6452;41.572;23.732;2023-12-22T14:16:56;28.30;;;22.48;;
12776;SDS011;6452;41.572;23.732;2023-12-22T14:19:22;22.55;;;17.70;;
12776;SDS011;6452;41.572;23.732;2023-12-22T14:21:48;28.95;;;21.52;;
12776;SDS011;6452;41.572;23.732;2023-12-22T14:24:15;27.27;;;20.08;;
12776;SDS011;6452;41.572;23.732;2023-12-22T14:26:53;25.42;;;18.20;;
12776;SDS011;6452;41.572;23.732;2023-12-22T14:29:20;29.33;;;20.52;;
12776;SDS011;6452;41.572;23.732;2023-12-22T14:31:49;72.50;;;43.70;;